LSMPLSMM

Guest
Details From LSMP - Payerne
To LSMM - Meiringen
Flight Number -
Tags Routegen Generated
Created
Modified
Stats Distance 50 nm / 93 km
Max Altitude 100 ft / 30 m
Waypoints 5
Social Downloads 7
Likes 0
Share VATSIM

Download

Looking for another format? Having issues loading an existing format? Contact us
Advertisement - Login to hide

Notes

Departing runway 4 LSMP. Arriving runway 9 LSMM.

Route

LSMP +46.90_+007.01 +46.83_+007.50 +46.75_+007.99 LSMM

ID Type Via Altitude Latitude Longitude Leg Dist Tot Dist Heading (true) Name
O LSMP APT - 0 ft / 0 m 46.85174˚ 6.92907˚ - 0 nm - -
+46.90_+007.01 LATLON - 100 ft / 30 m 46.89985˚ 7.00816˚ 4 nm 4 nm 48° / 48° -
+46.83_+007.50 LATLON - 100 ft / 30 m 46.82578˚ 7.49916˚ 20 nm 24 nm 102° / 103° -
+46.75_+007.99 LATLON - 100 ft / 30 m 46.75171˚ 7.99016˚ 20 nm 45 nm 102° / 103° -
O LSMM APT - 0 ft / 0 m 46.74341˚ 8.09507˚ 4 nm 50 nm 97° / 97° -

Altitude Profile

Advertisement - Login to hide

LSMP

Details ICAO LSMP
Name Payerne
Region Switzerland
Timezone Europe/Zurich (UTC+1.0)
Stats Elevation 1,465 ft / 447 m (AMSL)
Location 46.843204° 6.915057°
Runways 1
Magnetic Variation 1.935° E

METAR

LSMP 132350Z AUTO 23020G34KT 9999NDV -SHRA FEW040 OVC045 07/04 Q1004 RMK

Decode

TAF

Not found

Departure Runways

ID Width Length Bearing (true) Bearing (mag) Surface Threshold Offset Overrun Length
05 131 ft / 40 m 9,365 ft / 2,854 m 48.29° 46.36° Asphalt 1,365 ft / 416 m 610 ft / 186 m
23 131 ft / 40 m 9,365 ft / 2,854 m 228.31° 226.38° Asphalt 1,358 ft / 414 m 640 ft / 195 m

LSMM

Details ICAO LSMM
Name Meiringen
Region Switzerland
Timezone Europe/Zurich (UTC+1.0)
Stats Elevation 1,879 ft / 573 m (AMSL)
Location 46.742327° 8.108747°
Runways 1
Magnetic Variation 2.234° E

METAR

LSMM 132350Z AUTO 10010KT 9999NDV BKN083 BKN110 BKN190 01/M01 Q1004 RMK

Decode

TAF

Not found

Destination Runways

ID Width Length Bearing (true) Bearing (mag) Surface Threshold Offset Overrun Length
10 131 ft / 40 m 6,884 ft / 2,098 m 96.60° 94.37° Concrete 150 ft / 46 m 623 ft / 190 m
28 131 ft / 40 m 6,884 ft / 2,098 m 276.62° 274.39° Concrete 150 ft / 46 m 623 ft / 190 m